»·PEaware :: N1422E KSEA-KPDX

N1422E :: KSEA-KPDX

FLIGHT INFORMATION

Flight Status: Arrived
Operator: Privately registered:
United States
More flights under this callsign
Pilot: Jonathan B. (787)
Aircraft: CESSNA T210 TURBO CENTURION
(T210)
More flights by this aircraft type
Origin: KSEA Seattle-Tacoma Intl
United States
Destination: KPDX Portland Intl
United States
More flights between these airports :: More routes between these airports
Route: +
File this flight plan on PilotEdge
Remarks:
Altitude:
(Current/Filed)
6,500ft
Speed:
(Current/Filed)
0kts
Departed: 08-Dec-19 01:43 PM
Arrived: 08-Dec-19 02:32 PM
Distance/Time
Traveled:
112nm/0:49
Distance/Time
To Go:
Arrived

Flight Plot

Page will automatically refresh every two minutes.

Flight plan parsing failed; only flown route is shown


Map Options




Map Legend


Flown Route
Filed Route
Departure Airport
Arrival Airport
Navaid (VOR, NDB)
Fix

Horizontal Profiles

Position Reports

Time Latitude Longitude Heading Altitude Ground
Speed
08-Dec-19 13:29 47.438465 -122.315394 36 437ft 0kts
08-Dec-19 13:30 47.438465 -122.315394 36 437ft 0kts
08-Dec-19 13:31 47.438465 -122.315394 36 437ft 0kts
08-Dec-19 13:32 47.438465 -122.315394 36 437ft 0kts
08-Dec-19 13:33 47.438465 -122.315394 36 437ft 0kts
08-Dec-19 13:34 47.438762 -122.314878 85 437ft 6kts
08-Dec-19 13:35 47.441930 -122.313579 359 437ft 19kts
08-Dec-19 13:36 47.444431 -122.313566 359 437ft 7kts
08-Dec-19 13:37 47.450424 -122.313541 359 437ft 31kts
08-Dec-19 13:38 47.458115 -122.313472 1 437ft 20kts
08-Dec-19 13:39 47.463435 -122.313480 335 437ft 13kts
08-Dec-19 13:40 47.463677 -122.315547 272 437ft 0kts
08-Dec-19 13:41 47.463688 -122.316239 271 437ft 0kts
08-Dec-19 13:42 47.458984 -122.318038 182 488ft 79kts
08-Dec-19 13:43 47.431716 -122.317734 179 1930ft 110kts
08-Dec-19 13:44 47.402317 -122.318164 189 3398ft 109kts
08-Dec-19 13:45 47.370847 -122.321103 182 4605ft 114kts
08-Dec-19 13:46 47.340604 -122.323282 182 5982ft 105kts
08-Dec-19 13:47 47.308692 -122.325541 182 6866ft 138kts
08-Dec-19 13:48 47.269832 -122.328488 183 6500ft 121kts
08-Dec-19 13:49 47.238937 -122.330598 182 6371ft 136kts
08-Dec-19 13:50 47.199346 -122.346122 227 6353ft 162kts
08-Dec-19 13:51 47.155103 -122.357195 183 6348ft 166kts
08-Dec-19 13:52 47.108826 -122.360662 183 6348ft 166kts
08-Dec-19 13:53 47.062513 -122.364099 183 6348ft 167kts
08-Dec-19 13:54 47.016082 -122.367551 183 6348ft 167kts
08-Dec-19 13:55 46.969670 -122.370995 183 6348ft 167kts
08-Dec-19 13:56 46.923280 -122.375308 198 6337ft 168kts
08-Dec-19 13:57 46.891888 -122.420794 217 6347ft 167kts
08-Dec-19 13:58 46.851244 -122.453593 205 6348ft 167kts
08-Dec-19 13:59 46.808656 -122.480719 203 6348ft 167kts
08-Dec-19 14:00 46.765787 -122.507047 203 6348ft 167kts
08-Dec-19 14:01 46.722841 -122.533330 203 6348ft 167kts
08-Dec-19 14:02 46.679996 -122.559520 203 6348ft 167kts
08-Dec-19 14:03 46.637037 -122.585693 203 6348ft 167kts
08-Dec-19 14:04 46.594017 -122.611873 203 6348ft 167kts
08-Dec-19 14:05 46.550943 -122.637969 203 6347ft 167kts
08-Dec-19 14:06 46.508630 -122.663607 202 6348ft 166kts
08-Dec-19 14:07 46.465785 -122.689546 202 6348ft 166kts
08-Dec-19 14:08 46.422956 -122.715424 202 6348ft 166kts
08-Dec-19 14:09 46.380251 -122.741185 202 6348ft 166kts
08-Dec-19 14:10 46.337222 -122.767033 202 6348ft 166kts
08-Dec-19 14:11 46.294446 -122.792754 202 6348ft 166kts
08-Dec-19 14:12 46.251692 -122.818418 202 6348ft 166kts
08-Dec-19 14:13 46.208795 -122.844167 202 6348ft 166kts
08-Dec-19 14:14 46.165946 -122.869561 197 6346ft 166kts
08-Dec-19 14:15 46.119841 -122.874303 185 6348ft 167kts
08-Dec-19 14:16 46.073609 -122.880648 185 6345ft 167kts
08-Dec-19 14:17 46.029172 -122.873176 164 6184ft 157kts
08-Dec-19 14:18 45.986074 -122.856847 165 5210ft 166kts
08-Dec-19 14:19 45.941535 -122.840176 165 4211ft 165kts
08-Dec-19 14:20 45.898885 -122.824211 165 3246ft 164kts
08-Dec-19 14:21 45.855563 -122.808072 165 2263ft 161kts
08-Dec-19 14:22 45.814720 -122.792771 165 2318ft 157kts
08-Dec-19 14:23 45.774228 -122.777413 164 2311ft 135kts
08-Dec-19 14:24 45.737726 -122.763371 164 2315ft 136kts
08-Dec-19 14:25 45.700495 -122.748988 164 2292ft 144kts
08-Dec-19 14:26 45.659380 -122.733093 164 1278ft 162kts
08-Dec-19 14:27 45.623854 -122.703993 113 1054ft 151kts
08-Dec-19 14:28 45.609391 -122.657906 118 619ft 100kts
08-Dec-19 14:29 45.597673 -122.627808 117 191ft 69kts
08-Dec-19 14:30 45.590444 -122.609287 119 27ft 51kts
08-Dec-19 14:31 45.588300 -122.606264 212 27ft 0kts
08-Dec-19 14:32 45.586001 -122.602780 169 27ft 0kts

Navigation Log

Ident Type
Flight plan parsing failed, navigation log unavailable